sensor_id;sensor_type;location;lat;lon;timestamp;pressure;altitude;pressure_sealevel;temperature;humidity
79037;BME280;68434;59.896;30.474;2023-05-07T00:00:12;102980.09;;;5.63;66.75
79037;BME280;68434;59.896;30.474;2023-05-07T00:02:41;102987.63;;;5.55;66.99
79037;BME280;68434;59.896;30.474;2023-05-07T00:05:10;102991.97;;;5.57;67.01
79037;BME280;68434;59.896;30.474;2023-05-07T00:07:38;102992.78;;;5.59;67.05
79037;BME280;68434;59.896;30.474;2023-05-07T00:10:10;102986.81;;;5.53;67.35
79037;BME280;68434;59.896;30.474;2023-05-07T00:12:39;102994.06;;;5.51;67.87
79037;BME280;68434;59.896;30.474;2023-05-07T00:15:08;102991.44;;;5.49;68.13
79037;BME280;68434;59.896;30.474;2023-05-07T00:17:36;102984.13;;;5.53;67.79
79037;BME280;68434;59.896;30.474;2023-05-07T00:20:05;102991.22;;;5.54;67.91
79037;BME280;68434;59.896;30.474;2023-05-07T00:22:32;102986.75;;;5.54;67.97
79037;BME280;68434;59.896;30.474;2023-05-07T00:25:00;102987.78;;;5.52;67.82
79037;BME280;68434;59.896;30.474;2023-05-07T00:27:34;102999.22;;;5.55;67.76
79037;BME280;68434;59.896;30.474;2023-05-07T00:30:02;102991.31;;;5.52;68.12
79037;BME280;68434;59.896;30.474;2023-05-07T00:32:34;102987.84;;;5.50;68.31
79037;BME280;68434;59.896;30.474;2023-05-07T00:35:03;102994.00;;;5.52;68.30
79037;BME280;68434;59.896;30.474;2023-05-07T00:37:31;102995.81;;;5.52;68.83
79037;BME280;68434;59.896;30.474;2023-05-07T00:39:59;102985.16;;;5.50;68.37
79037;BME280;68434;59.896;30.474;2023-05-07T00:42:30;103002.25;;;5.48;68.29
79037;BME280;68434;59.896;30.474;2023-05-07T00:44:59;102991.66;;;5.45;68.38
79037;BME280;68434;59.896;30.474;2023-05-07T00:47:31;103005.06;;;5.45;68.24
79037;BME280;68434;59.896;30.474;2023-05-07T00:49:59;103000.72;;;5.42;67.99
79037;BME280;68434;59.896;30.474;2023-05-07T00:52:27;103003.53;;;5.39;68.58
79037;BME280;68434;59.896;30.474;2023-05-07T00:54:56;102993.69;;;5.40;68.66
79037;BME280;68434;59.896;30.474;2023-05-07T00:57:24;102995.22;;;5.45;68.28
79037;BME280;68434;59.896;30.474;2023-05-07T00:59:52;102991.66;;;5.45;68.42
79037;BME280;68434;59.896;30.474;2023-05-07T01:02:21;102984.53;;;5.44;68.69
79037;BME280;68434;59.896;30.474;2023-05-07T01:04:48;102987.97;;;5.47;68.34
79037;BME280;68434;59.896;30.474;2023-05-07T01:07:16;102986.13;;;5.48;68.51
79037;BME280;68434;59.896;30.474;2023-05-07T01:09:44;102985.09;;;5.52;68.53
79037;BME280;68434;59.896;30.474;2023-05-07T01:12:12;102987.97;;;5.47;69.00
79037;BME280;68434;59.896;30.474;2023-05-07T01:14:40;102999.22;;;5.55;68.77
79037;BME280;68434;59.896;30.474;2023-05-07T01:17:08;102990.97;;;5.60;68.97
79037;BME280;68434;59.896;30.474;2023-05-07T01:19:37;102997.81;;;5.67;68.58
79037;BME280;68434;59.896;30.474;2023-05-07T01:22:08;103002.31;;;5.66;68.75
79037;BME280;68434;59.896;30.474;2023-05-07T01:24:47;102998.59;;;5.69;68.71
79037;BME280;68434;59.896;30.474;2023-05-07T01:27:16;102997.75;;;5.68;68.85
79037;BME280;68434;59.896;30.474;2023-05-07T01:29:44;103004.78;;;5.71;68.86
79037;BME280;68434;59.896;30.474;2023-05-07T01:32:11;103004.72;;;5.72;68.79
79037;BME280;68434;59.896;30.474;2023-05-07T01:34:41;103003.91;;;5.70;68.80
79037;BME280;68434;59.896;30.474;2023-05-07T01:37:11;103002.03;;;5.72;69.01
79037;BME280;68434;59.896;30.474;2023-05-07T01:39:39;103012.84;;;5.71;69.52
79037;BME280;68434;59.896;30.474;2023-05-07T01:42:08;103006.44;;;5.73;70.21
79037;BME280;68434;59.896;30.474;2023-05-07T01:44:37;103011.81;;;5.73;69.56
79037;BME280;68434;59.896;30.474;2023-05-07T01:47:05;103015.38;;;5.74;70.15
79037;BME280;68434;59.896;30.474;2023-05-07T01:49:33;103005.59;;;5.73;69.92
79037;BME280;68434;59.896;30.474;2023-05-07T01:52:02;103010.59;;;5.82;69.88
79037;BME280;68434;59.896;30.474;2023-05-07T01:54:29;103017.56;;;5.86;69.78
79037;BME280;68434;59.896;30.474;2023-05-07T01:56:58;103017.56;;;5.86;69.79
79037;BME280;68434;59.896;30.474;2023-05-07T01:59:27;103010.44;;;5.85;69.81
79037;BME280;68434;59.896;30.474;2023-05-07T02:01:55;103013.91;;;5.87;69.99
79037;BME280;68434;59.896;30.474;2023-05-07T02:04:23;103011.22;;;5.87;70.00
79037;BME280;68434;59.896;30.474;2023-05-07T02:06:51;103011.84;;;5.94;69.50
79037;BME280;68434;59.896;30.474;2023-05-07T02:09:20;103013.50;;;5.96;69.06
79037;BME280;68434;59.896;30.474;2023-05-07T02:11:49;103016.84;;;6.01;69.24
79037;BME280;68434;59.896;30.474;2023-05-07T02:14:18;103012.44;;;6.00;68.93
79037;BME280;68434;59.896;30.474;2023-05-07T02:16:48;103014.44;;;5.95;68.86
79037;BME280;68434;59.896;30.474;2023-05-07T02:19:16;103019.63;;;6.00;68.58
79037;BME280;68434;59.896;30.474;2023-05-07T02:21:44;103016.72;;;6.04;68.53
79037;BME280;68434;59.896;30.474;2023-05-07T02:24:11;103028.97;;;6.10;68.46
79037;BME280;68434;59.896;30.474;2023-05-07T02:26:39;103023.81;;;6.05;68.86
79037;BME280;68434;59.896;30.474;2023-05-07T02:29:07;103020.13;;;6.08;68.33
79037;BME280;68434;59.896;30.474;2023-05-07T02:31:36;103022.81;;;6.08;68.62
79037;BME280;68434;59.896;30.474;2023-05-07T02:34:05;103022.91;;;6.06;68.33
79037;BME280;68434;59.896;30.474;2023-05-07T02:36:32;103021.06;;;6.07;69.05
79037;BME280;68434;59.896;30.474;2023-05-07T02:39:06;103020.44;;;6.02;68.51
79037;BME280;68434;59.896;30.474;2023-05-07T02:41:33;103019.19;;;6.09;68.71
79037;BME280;68434;59.896;30.474;2023-05-07T02:44:01;103026.09;;;6.14;68.41
79037;BME280;68434;59.896;30.474;2023-05-07T02:46:29;103016.22;;;6.15;68.27
79037;BME280;68434;59.896;30.474;2023-05-07T02:49:01;103017.66;;;6.22;67.97
79037;BME280;68434;59.896;30.474;2023-05-07T02:51:31;103016.59;;;6.26;67.84
79037;BME280;68434;59.896;30.474;2023-05-07T02:54:01;103018.09;;;6.31;67.51
79037;BME280;68434;59.896;30.474;2023-05-07T02:56:30;103018.91;;;6.33;67.79
79037;BME280;68434;59.896;30.474;2023-05-07T02:58:58;103008.38;;;6.29;67.97
79037;BME280;68434;59.896;30.474;2023-05-07T03:01:29;103019.28;;;6.26;67.78
79037;BME280;68434;59.896;30.474;2023-05-07T03:04:01;103030.59;;;6.32;67.25
79037;BME280;68434;59.896;30.474;2023-05-07T03:06:32;103041.06;;;6.38;67.22
79037;BME280;68434;59.896;30.474;2023-05-07T03:09:00;103041.13;;;6.37;67.45
79037;BME280;68434;59.896;30.474;2023-05-07T03:11:28;103041.78;;;6.42;67.20
79037;BME280;68434;59.896;30.474;2023-05-07T03:13:55;103048.91;;;6.43;67.37
79037;BME280;68434;59.896;30.474;2023-05-07T03:16:23;103046.88;;;6.48;67.13
79037;BME280;68434;59.896;30.474;2023-05-07T03:18:51;103047.84;;;6.47;66.60
79037;BME280;68434;59.896;30.474;2023-05-07T03:21:18;103056.38;;;6.55;66.53
79037;BME280;68434;59.896;30.474;2023-05-07T03:23:47;103054.13;;;6.64;66.39
79037;BME280;68434;59.896;30.474;2023-05-07T03:26:15;103052.25;;;6.66;66.67
79037;BME280;68434;59.896;30.474;2023-05-07T03:28:44;103044.19;;;6.66;66.90
79037;BME280;68434;59.896;30.474;2023-05-07T03:31:14;103047.50;;;6.71;65.75
79037;BME280;68434;59.896;30.474;2023-05-07T03:33:50;103035.69;;;6.75;65.59
79037;BME280;68434;59.896;30.474;2023-05-07T03:36:19;103048.03;;;6.79;65.75
79037;BME280;68434;59.896;30.474;2023-05-07T03:38:49;103046.22;;;6.80;64.22
79037;BME280;68434;59.896;30.474;2023-05-07T03:41:20;103038.75;;;6.85;63.58
79037;BME280;68434;59.896;30.474;2023-05-07T03:43:47;103041.88;;;6.94;63.65
79037;BME280;68434;59.896;30.474;2023-05-07T03:46:15;103052.34;;;7.00;63.39
79037;BME280;68434;59.896;30.474;2023-05-07T03:48:44;103051.31;;;7.03;63.34
79037;BME280;68434;59.896;30.474;2023-05-07T03:51:16;103053.94;;;7.04;62.34
79037;BME280;68434;59.896;30.474;2023-05-07T03:53:43;103052.63;;;7.13;62.55
79037;BME280;68434;59.896;30.474;2023-05-07T03:56:13;103058.47;;;7.21;62.05
79037;BME280;68434;59.896;30.474;2023-05-07T03:58:41;103052.00;;;7.25;61.54
79037;BME280;68434;59.896;30.474;2023-05-07T04:01:10;103061.50;;;7.32;60.36
79037;BME280;68434;59.896;30.474;2023-05-07T04:03:38;103063.31;;;7.31;60.28
79037;BME280;68434;59.896;30.474;2023-05-07T04:06:06;103063.63;;;7.42;60.67
79037;BME280;68434;59.896;30.474;2023-05-07T04:08:35;103066.09;;;7.47;61.00
79037;BME280;68434;59.896;30.474;2023-05-07T04:11:04;103062.13;;;7.54;60.88
79037;BME280;68434;59.896;30.474;2023-05-07T04:13:34;103067.44;;;7.55;60.59
79037;BME280;68434;59.896;30.474;2023-05-07T04:16:05;103064.66;;;7.57;60.08
79037;BME280;68434;59.896;30.474;2023-05-07T04:18:37;103068.47;;;7.70;59.66
79037;BME280;68434;59.896;30.474;2023-05-07T04:21:13;103064.34;;;7.80;60.00
79037;BME280;68434;59.896;30.474;2023-05-07T04:23:41;103067.72;;;7.84;60.19
79037;BME280;68434;59.896;30.474;2023-05-07T04:26:11;103078.16;;;7.90;59.17
79037;BME280;68434;59.896;30.474;2023-05-07T04:28:43;103081.50;;;7.78;60.28
79037;BME280;68434;59.896;30.474;2023-05-07T04:31:11;103079.72;;;7.78;60.30
79037;BME280;68434;59.896;30.474;2023-05-07T04:33:40;103079.06;;;7.73;59.70
79037;BME280;68434;59.896;30.474;2023-05-07T04:36:11;103070.81;;;7.76;59.37
79037;BME280;68434;59.896;30.474;2023-05-07T04:38:46;103076.03;;;7.79;58.87
79037;BME280;68434;59.896;30.474;2023-05-07T04:41:16;103074.22;;;7.80;58.67
79037;BME280;68434;59.896;30.474;2023-05-07T04:43:45;103078.97;;;7.92;57.43
79037;BME280;68434;59.896;30.474;2023-05-07T04:46:14;103075.63;;;8.04;56.79
79037;BME280;68434;59.896;30.474;2023-05-07T04:48:43;103081.91;;;8.04;55.56
79037;BME280;68434;59.896;30.474;2023-05-07T04:51:11;103074.59;;;8.23;55.29
79037;BME280;68434;59.896;30.474;2023-05-07T04:53:39;103072.22;;;8.65;53.53
79037;BME280;68434;59.896;30.474;2023-05-07T04:56:09;103074.41;;;8.90;52.72
79037;BME280;68434;59.896;30.474;2023-05-07T04:58:43;103078.38;;;8.98;52.27
79037;BME280;68434;59.896;30.474;2023-05-07T05:01:13;103089.53;;;9.08;50.80
79037;BME280;68434;59.896;30.474;2023-05-07T05:03:41;103085.34;;;9.02;50.42
79037;BME280;68434;59.896;30.474;2023-05-07T05:06:10;103083.34;;;9.06;48.92
79037;BME280;68434;59.896;30.474;2023-05-07T05:08:38;103079.75;;;9.21;46.81
79037;BME280;68434;59.896;30.474;2023-05-07T05:11:06;103080.75;;;9.34;44.44
79037;BME280;68434;59.896;30.474;2023-05-07T05:13:51;103088.50;;;9.40;42.15
79037;BME280;68434;59.896;30.474;2023-05-07T05:16:22;103077.22;;;9.63;42.02
79037;BME280;68434;59.896;30.474;2023-05-07T05:18:49;103087.69;;;9.83;39.58
79037;BME280;68434;59.896;30.474;2023-05-07T05:21:19;103080.25;;;9.73;39.01
79037;BME280;68434;59.896;30.474;2023-05-07T05:26:35;103088.44;;;9.85;38.06
79037;BME280;68434;59.896;30.474;2023-05-07T05:29:22;103091.75;;;9.90;38.82
79037;BME280;68434;59.896;30.474;2023-05-07T05:31:51;103085.69;;;10.01;38.71
79037;BME280;68434;59.896;30.474;2023-05-07T05:34:19;103094.47;;;9.90;38.34
79037;BME280;68434;59.896;30.474;2023-05-07T05:36:48;103098.09;;;9.75;37.26
79037;BME280;68434;59.896;30.474;2023-05-07T05:39:16;103087.19;;;9.77;37.81
79037;BME280;68434;59.896;30.474;2023-05-07T05:41:44;103090.97;;;9.74;38.21
79037;BME280;68434;59.896;30.474;2023-05-07T05:44:13;103085.97;;;9.52;37.01
79037;BME280;68434;59.896;30.474;2023-05-07T05:46:42;103089.19;;;9.59;38.25
79037;BME280;68434;59.896;30.474;2023-05-07T05:49:11;103098.28;;;9.72;37.99
79037;BME280;68434;59.896;30.474;2023-05-07T05:51:39;103098.09;;;9.75;37.52
79037;BME280;68434;59.896;30.474;2023-05-07T05:54:07;103090.91;;;10.04;36.58
79037;BME280;68434;59.896;30.474;2023-05-07T05:56:36;103093.03;;;10.69;37.13
79037;BME280;68434;59.896;30.474;2023-05-07T05:59:05;103097.94;;;10.90;35.25
79037;BME280;68434;59.896;30.474;2023-05-07T06:01:34;103095.72;;;11.23;35.62
79037;BME280;68434;59.896;30.474;2023-05-07T06:04:04;103090.78;;;11.42;33.35
79037;BME280;68434;59.896;30.474;2023-05-07T06:06:33;103098.13;;;11.28;33.53
79037;BME280;68434;59.896;30.474;2023-05-07T06:09:02;103102.28;;;10.93;33.34
79037;BME280;68434;59.896;30.474;2023-05-07T06:11:36;103098.75;;;10.78;33.49
79037;BME280;68434;59.896;30.474;2023-05-07T06:14:05;103101.34;;;10.80;33.61
79037;BME280;68434;59.896;30.474;2023-05-07T06:16:33;103101.44;;;10.78;33.70
79037;BME280;68434;59.896;30.474;2023-05-07T06:19:02;103104.56;;;10.72;33.54
79037;BME280;68434;59.896;30.474;2023-05-07T06:21:30;103109.19;;;10.70;34.29
79037;BME280;68434;59.896;30.474;2023-05-07T06:24:00;103106.03;;;10.64;32.77
79037;BME280;68434;59.896;30.474;2023-05-07T06:26:27;103104.94;;;10.80;32.51
79037;BME280;68434;59.896;30.474;2023-05-07T06:28:55;103111.16;;;11.09;33.18
79037;BME280;68434;59.896;30.474;2023-05-07T06:31:29;103111.00;;;10.98;32.58
79037;BME280;68434;59.896;30.474;2023-05-07T06:34:07;103110.97;;;11.38;32.50
79037;BME280;68434;59.896;30.474;2023-05-07T06:36:37;103108.69;;;11.72;31.76
79037;BME280;68434;59.896;30.474;2023-05-07T06:39:21;103107.88;;;11.57;31.33
79037;BME280;68434;59.896;30.474;2023-05-07T06:41:51;103110.19;;;11.36;30.84
79037;BME280;68434;59.896;30.474;2023-05-07T06:44:26;103111.53;;;11.70;31.40
79037;BME280;68434;59.896;30.474;2023-05-07T06:47:09;103103.22;;;12.61;30.09
79037;BME280;68434;59.896;30.474;2023-05-07T06:49:39;103090.53;;;13.68;28.44
79037;BME280;68434;59.896;30.474;2023-05-07T06:52:07;103099.16;;;13.97;28.51
79037;BME280;68434;59.896;30.474;2023-05-07T06:54:36;103088.72;;;14.47;27.34
79037;BME280;68434;59.896;30.474;2023-05-07T06:57:04;103086.91;;;15.55;25.96
79037;BME280;68434;59.896;30.474;2023-05-07T06:59:32;103080.91;;;15.93;25.37
79037;BME280;68434;59.896;30.474;2023-05-07T07:02:00;103074.69;;;16.52;24.59
79037;BME280;68434;59.896;30.474;2023-05-07T07:04:27;103074.81;;;16.90;23.96
79037;BME280;68434;59.896;30.474;2023-05-07T07:07:04;103073.41;;;16.36;23.84
79037;BME280;68434;59.896;30.474;2023-05-07T07:09:32;103071.63;;;16.25;25.40
79037;BME280;68434;59.896;30.474;2023-05-07T07:12:02;103073.94;;;16.00;26.31
79037;BME280;68434;59.896;30.474;2023-05-07T07:14:31;103079.03;;;15.73;26.97
79037;BME280;68434;59.896;30.474;2023-05-07T07:16:59;103082.28;;;15.35;27.56
79037;BME280;68434;59.896;30.474;2023-05-07T07:19:29;103080.03;;;14.86;29.18
79037;BME280;68434;59.896;30.474;2023-05-07T07:21:57;103077.22;;;14.66;29.76
79037;BME280;68434;59.896;30.474;2023-05-07T07:24:26;103083.78;;;14.52;30.29
79037;BME280;68434;59.896;30.474;2023-05-07T07:26:57;103077.22;;;14.33;30.48
79037;BME280;68434;59.896;30.474;2023-05-07T07:29:27;103082.63;;;14.11;30.69
79037;BME280;68434;59.896;30.474;2023-05-07T07:31:55;103079.72;;;14.01;29.81
79037;BME280;68434;59.896;30.474;2023-05-07T07:36:53;103078.72;;;13.22;30.42
79037;BME280;68434;59.896;30.474;2023-05-07T07:39:21;103089.84;;;13.06;30.93
79037;BME280;68434;59.896;30.474;2023-05-07T07:41:51;103076.81;;;12.99;31.54
79037;BME280;68434;59.896;30.474;2023-05-07T07:44:21;103087.81;;;13.21;30.61
79037;BME280;68434;59.896;30.474;2023-05-07T07:46:54;103086.97;;;13.44;29.49
79037;BME280;68434;59.896;30.474;2023-05-07T07:49:24;103078.41;;;13.61;29.10
79037;BME280;68434;59.896;30.474;2023-05-07T07:51:52;103083.78;;;13.50;29.50
79037;BME280;68434;59.896;30.474;2023-05-07T07:54:20;103082.38;;;13.21;30.11
79037;BME280;68434;59.896;30.474;2023-05-07T07:56:48;103073.63;;;13.17;30.85
79037;BME280;68434;59.896;30.474;2023-05-07T07:59:16;103072.78;;;13.52;29.33
79037;BME280;68434;59.896;30.474;2023-05-07T08:01:46;103071.06;;;13.27;29.33
79037;BME280;68434;59.896;30.474;2023-05-07T08:04:18;103078.97;;;13.06;28.99
79037;BME280;68434;59.896;30.474;2023-05-07T08:06:46;103083.81;;;12.78;28.70
79037;BME280;68434;59.896;30.474;2023-05-07T08:09:14;103083.56;;;12.45;29.72
79037;BME280;68434;59.896;30.474;2023-05-07T08:11:45;103083.47;;;12.21;29.45
79037;BME280;68434;59.896;30.474;2023-05-07T08:14:13;103074.66;;;11.93;29.25
79037;BME280;68434;59.896;30.474;2023-05-07T08:16:47;103083.16;;;11.62;28.82
79037;BME280;68434;59.896;30.474;2023-05-07T08:19:15;103086.94;;;11.47;29.93
79037;BME280;68434;59.896;30.474;2023-05-07T08:21:46;103090.69;;;11.44;29.62
79037;BME280;68434;59.896;30.474;2023-05-07T08:24:15;103090.16;;;11.39;30.00
79037;BME280;68434;59.896;30.474;2023-05-07T08:26:43;103100.47;;;11.20;29.20
79037;BME280;68434;59.896;30.474;2023-05-07T08:29:11;103098.56;;;11.08;29.80
79037;BME280;68434;59.896;30.474;2023-05-07T08:31:39;103098.47;;;11.09;30.66
79037;BME280;68434;59.896;30.474;2023-05-07T08:34:07;103106.50;;;11.11;30.17
79037;BME280;68434;59.896;30.474;2023-05-07T08:36:37;103092.75;;;11.14;30.18
79037;BME280;68434;59.896;30.474;2023-05-07T08:39:09;103094.13;;;11.07;29.80
79037;BME280;68434;59.896;30.474;2023-05-07T08:41:38;103092.91;;;11.25;30.17
79037;BME280;68434;59.896;30.474;2023-05-07T08:44:14;103084.50;;;11.15;30.24
79037;BME280;68434;59.896;30.474;2023-05-07T08:46:47;103084.66;;;11.53;30.60
79037;BME280;68434;59.896;30.474;2023-05-07T08:49:18;103074.34;;;12.22;29.89
79037;BME280;68434;59.896;30.474;2023-05-07T08:51:46;103071.75;;;12.46;28.97
79037;BME280;68434;59.896;30.474;2023-05-07T08:54:17;103080.22;;;12.29;28.09
79037;BME280;68434;59.896;30.474;2023-05-07T08:56:46;103080.22;;;12.16;29.08
79037;BME280;68434;59.896;30.474;2023-05-07T08:59:14;103078.81;;;12.23;30.13
79037;BME280;68434;59.896;30.474;2023-05-07T09:01:43;103077.38;;;12.18;29.33
79037;BME280;68434;59.896;30.474;2023-05-07T09:04:11;103078.25;;;12.18;28.67
79037;BME280;68434;59.896;30.474;2023-05-07T09:06:40;103081.19;;;12.15;29.82
79037;BME280;68434;59.896;30.474;2023-05-07T09:09:14;103088.44;;;12.15;30.69
79037;BME280;68434;59.896;30.474;2023-05-07T09:11:56;103082.81;;;11.93;28.16
79037;BME280;68434;59.896;30.474;2023-05-07T09:14:26;103087.25;;;11.81;27.82
79037;BME280;68434;59.896;30.474;2023-05-07T09:16:54;103089.84;;;11.83;27.39
79037;BME280;68434;59.896;30.474;2023-05-07T09:19:23;103086.81;;;11.75;27.20
79037;BME280;68434;59.896;30.474;2023-05-07T09:21:58;103080.84;;;11.82;27.04
79037;BME280;68434;59.896;30.474;2023-05-07T09:24:33;103090.59;;;11.85;27.94
79037;BME280;68434;59.896;30.474;2023-05-07T09:27:06;103091.63;;;11.57;25.13
79037;BME280;68434;59.896;30.474;2023-05-07T09:29:39;103091.06;;;11.52;24.86
79037;BME280;68434;59.896;30.474;2023-05-07T09:32:07;103103.97;;;11.61;24.32
79037;BME280;68434;59.896;30.474;2023-05-07T09:34:35;103096.56;;;11.77;23.68
79037;BME280;68434;59.896;30.474;2023-05-07T09:37:05;103097.53;;;11.76;23.77
79037;BME280;68434;59.896;30.474;2023-05-07T09:39:40;103099.16;;;11.66;22.49
79037;BME280;68434;59.896;30.474;2023-05-07T09:42:11;103100.16;;;12.03;22.50
79037;BME280;68434;59.896;30.474;2023-05-07T09:44:41;103088.69;;;11.99;23.00
79037;BME280;68434;59.896;30.474;2023-05-07T09:47:18;103089.44;;;12.01;21.95
79037;BME280;68434;59.896;30.474;2023-05-07T09:49:56;103105.03;;;11.85;21.46
79037;BME280;68434;59.896;30.474;2023-05-07T09:52:25;103095.50;;;11.92;22.60
79037;BME280;68434;59.896;30.474;2023-05-07T09:55:05;103106.47;;;12.03;22.53
79037;BME280;68434;59.896;30.474;2023-05-07T09:57:36;103098.63;;;11.86;22.12
79037;BME280;68434;59.896;30.474;2023-05-07T10:00:08;103104.16;;;11.72;22.16
79037;BME280;68434;59.896;30.474;2023-05-07T10:02:51;103097.56;;;11.89;23.70
79037;BME280;68434;59.896;30.474;2023-05-07T10:05:27;103092.03;;;11.90;21.75
79037;BME280;68434;59.896;30.474;2023-05-07T10:07:58;103093.00;;;11.89;23.06
79037;BME280;68434;59.896;30.474;2023-05-07T10:10:27;103107.53;;;11.88;21.69
79037;BME280;68434;59.896;30.474;2023-05-07T10:12:59;103095.84;;;12.00;21.75
79037;BME280;68434;59.896;30.474;2023-05-07T10:15:33;103091.28;;;12.13;21.47
79037;BME280;68434;59.896;30.474;2023-05-07T10:18:03;103093.13;;;12.38;21.49
79037;BME280;68434;59.896;30.474;2023-05-07T10:20:30;103086.72;;;12.51;22.17
79037;BME280;68434;59.896;30.474;2023-05-07T10:23:01;103089.19;;;12.67;22.48
79037;BME280;68434;59.896;30.474;2023-05-07T10:25:40;103074.41;;;12.71;22.36
79037;BME280;68434;59.896;30.474;2023-05-07T10:28:19;103076.56;;;12.78;21.84
79037;BME280;68434;59.896;30.474;2023-05-07T10:31:01;103076.38;;;12.92;21.97
79037;BME280;68434;59.896;30.474;2023-05-07T10:33:43;103082.75;;;12.80;22.13
79037;BME280;68434;59.896;30.474;2023-05-07T10:36:13;103081.00;;;12.79;20.66
79037;BME280;68434;59.896;30.474;2023-05-07T10:38:42;103088.78;;;12.96;20.99
79037;BME280;68434;59.896;30.474;2023-05-07T10:41:11;103073.44;;;13.08;20.47
79037;BME280;68434;59.896;30.474;2023-05-07T10:43:44;103075.56;;;13.15;21.46
79037;BME280;68434;59.896;30.474;2023-05-07T10:46:39;103071.47;;;12.97;20.93
79037;BME280;68434;59.896;30.474;2023-05-07T10:49:12;103074.88;;;13.01;21.37
79037;BME280;68434;59.896;30.474;2023-05-07T10:52:12;103074.19;;;12.97;20.32
79037;BME280;68434;59.896;30.474;2023-05-07T10:54:47;103073.13;;;13.00;21.40
79037;BME280;68434;59.896;30.474;2023-05-07T10:57:36;103069.63;;;13.34;22.74
79037;BME280;68434;59.896;30.474;2023-05-07T11:00:44;103059.88;;;13.43;21.47
79037;BME280;68434;59.896;30.474;2023-05-07T11:03:20;103067.94;;;13.44;21.50
79037;BME280;68434;59.896;30.474;2023-05-07T11:06:17;103057.28;;;13.41;20.36
79037;BME280;68434;59.896;30.474;2023-05-07T11:08:58;103055.22;;;13.45;21.20
79037;BME280;68434;59.896;30.474;2023-05-07T11:11:46;103069.78;;;13.44;19.96
79037;BME280;68434;59.896;30.474;2023-05-07T11:14:44;103075.09;;;13.45;22.04
79037;BME280;68434;59.896;30.474;2023-05-07T11:17:21;103058.34;;;13.62;21.66
79037;BME280;68434;59.896;30.474;2023-05-07T11:20:00;103058.72;;;13.58;22.17
79037;BME280;68434;59.896;30.474;2023-05-07T11:22:38;103054.91;;;13.37;21.11
79037;BME280;68434;59.896;30.474;2023-05-07T11:25:32;103059.78;;;13.44;21.65
79037;BME280;68434;59.896;30.474;2023-05-07T11:28:07;103066.16;;;13.32;22.36
79037;BME280;68434;59.896;30.474;2023-05-07T11:30:41;103069.59;;;13.10;21.53
79037;BME280;68434;59.896;30.474;2023-05-07T11:33:17;103064.06;;;12.76;21.93
79037;BME280;68434;59.896;30.474;2023-05-07T11:35:46;103061.63;;;12.84;22.16
79037;BME280;68434;59.896;30.474;2023-05-07T11:38:17;103070.78;;;12.83;22.74
79037;BME280;68434;59.896;30.474;2023-05-07T11:40:49;103062.38;;;12.62;22.49
79037;BME280;68434;59.896;30.474;2023-05-07T11:43:17;103075.50;;;12.56;23.23
79037;BME280;68434;59.896;30.474;2023-05-07T11:45:45;103071.06;;;12.55;23.48
79037;BME280;68434;59.896;30.474;2023-05-07T11:48:15;103079.66;;;12.49;22.52
79037;BME280;68434;59.896;30.474;2023-05-07T11:50:50;103066.09;;;12.49;22.42
79037;BME280;68434;59.896;30.474;2023-05-07T11:53:24;103070.31;;;12.40;22.86
79037;BME280;68434;59.896;30.474;2023-05-07T11:55:52;103074.97;;;12.63;23.07
79037;BME280;68434;59.896;30.474;2023-05-07T11:58:22;103067.50;;;12.90;24.30
79037;BME280;68434;59.896;30.474;2023-05-07T12:00:49;103060.38;;;12.77;22.44
79037;BME280;68434;59.896;30.474;2023-05-07T12:03:19;103063.25;;;12.86;23.61
79037;BME280;68434;59.896;30.474;2023-05-07T12:05:47;103062.41;;;12.86;23.06
79037;BME280;68434;59.896;30.474;2023-05-07T12:08:18;103066.84;;;12.87;23.42
79037;BME280;68434;59.896;30.474;2023-05-07T12:10:48;103081.59;;;12.95;23.98
79037;BME280;68434;59.896;30.474;2023-05-07T12:13:20;103075.28;;;12.71;22.61
79037;BME280;68434;59.896;30.474;2023-05-07T12:15:53;103065.75;;;12.53;22.59
79037;BME280;68434;59.896;30.474;2023-05-07T12:18:23;103064.97;;;12.64;22.71
79037;BME280;68434;59.896;30.474;2023-05-07T12:20:51;103059.38;;;12.78;23.39
79037;BME280;68434;59.896;30.474;2023-05-07T12:23:22;103065.16;;;12.73;23.08
79037;BME280;68434;59.896;30.474;2023-05-07T12:25:49;103054.88;;;12.53;22.33
79037;BME280;68434;59.896;30.474;2023-05-07T12:28:18;103054.38;;;12.84;23.99
79037;BME280;68434;59.896;30.474;2023-05-07T12:30:49;103054.53;;;12.94;23.17
79037;BME280;68434;59.896;30.474;2023-05-07T12:33:18;103060.41;;;13.00;22.50
79037;BME280;68434;59.896;30.474;2023-05-07T12:35:53;103059.16;;;12.81;22.04
79037;BME280;68434;59.896;30.474;2023-05-07T12:38:22;103061.59;;;12.96;22.15
79037;BME280;68434;59.896;30.474;2023-05-07T12:40:54;103057.06;;;13.20;22.19
79037;BME280;68434;59.896;30.474;2023-05-07T12:43:24;103056.19;;;13.20;22.55
79037;BME280;68434;59.896;30.474;2023-05-07T12:45:54;103053.47;;;13.20;22.46
79037;BME280;68434;59.896;30.474;2023-05-07T12:48:23;103053.13;;;13.24;22.53
79037;BME280;68434;59.896;30.474;2023-05-07T12:50:57;103052.25;;;13.24;21.98
79037;BME280;68434;59.896;30.474;2023-05-07T12:53:26;103040.44;;;13.36;22.57
79037;BME280;68434;59.896;30.474;2023-05-07T12:55:57;103064.13;;;13.23;22.86
79037;BME280;68434;59.896;30.474;2023-05-07T12:58:27;103066.19;;;13.19;23.31
79037;BME280;68434;59.896;30.474;2023-05-07T13:00:59;103059.97;;;12.94;22.88
79037;BME280;68434;59.896;30.474;2023-05-07T13:03:33;103063.41;;;12.72;21.99
79037;BME280;68434;59.896;30.474;2023-05-07T13:06:07;103060.94;;;12.69;22.07
79037;BME280;68434;59.896;30.474;2023-05-07T13:08:39;103052.47;;;12.61;21.85